sensor_id;sensor_type;location;lat;lon;timestamp;pressure;altitude;pressure_sealevel;temperature;humidity
65010;BME280;51556;50.002;22.014;2023-08-07T00:00:30;97863.55;;;16.52;75.51
65010;BME280;51556;50.002;22.014;2023-08-07T00:02:55;97864.65;;;16.42;75.77
65010;BME280;51556;50.002;22.014;2023-08-07T00:05:21;97862.03;;;16.46;75.69
65010;BME280;51556;50.002;22.014;2023-08-07T00:07:46;97862.36;;;16.51;75.34
65010;BME280;51556;50.002;22.014;2023-08-07T00:10:12;97869.17;;;16.38;75.95
65010;BME280;51556;50.002;22.014;2023-08-07T00:12:38;97864.48;;;16.37;75.82
65010;BME280;51556;50.002;22.014;2023-08-07T00:15:04;97867.61;;;16.40;75.64
65010;BME280;51556;50.002;22.014;2023-08-07T00:17:30;97864.69;;;16.41;75.51
65010;BME280;51556;50.002;22.014;2023-08-07T00:19:55;97869.52;;;16.43;75.38
65010;BME280;51556;50.002;22.014;2023-08-07T00:22:21;97874.05;;;16.39;75.18
65010;BME280;51556;50.002;22.014;2023-08-07T00:24:46;97867.84;;;16.42;75.29
65010;BME280;51556;50.002;22.014;2023-08-07T00:27:12;97878.48;;;16.47;75.14
65010;BME280;51556;50.002;22.014;2023-08-07T00:29:38;97877.32;;;16.46;75.04
65010;BME280;51556;50.002;22.014;2023-08-07T00:32:04;97880.73;;;16.48;74.95
65010;BME280;51556;50.002;22.014;2023-08-07T00:34:30;97887.23;;;16.46;74.95
65010;BME280;51556;50.002;22.014;2023-08-07T00:36:55;97881.33;;;16.32;75.42
65010;BME280;51556;50.002;22.014;2023-08-07T00:39:21;97876.54;;;16.32;75.39
65010;BME280;51556;50.002;22.014;2023-08-07T00:41:46;97869.11;;;16.36;75.29
65010;BME280;51556;50.002;22.014;2023-08-07T00:44:12;97866.63;;;16.36;75.20
65010;BME280;51556;50.002;22.014;2023-08-07T00:46:38;97864.63;;;16.35;74.99
65010;BME280;51556;50.002;22.014;2023-08-07T00:49:05;97857.38;;;16.37;74.94
65010;BME280;51556;50.002;22.014;2023-08-07T00:51:31;97853.80;;;16.42;74.86
65010;BME280;51556;50.002;22.014;2023-08-07T00:53:57;97854.29;;;16.43;74.46
65010;BME280;51556;50.002;22.014;2023-08-07T00:56:25;97856.91;;;16.41;74.48
65010;BME280;51556;50.002;22.014;2023-08-07T00:58:51;97860.56;;;16.39;74.30
65010;BME280;51556;50.002;22.014;2023-08-07T01:01:16;97860.75;;;16.37;73.99
65010;BME280;51556;50.002;22.014;2023-08-07T01:03:42;97865.05;;;16.36;74.12
65010;BME280;51556;50.002;22.014;2023-08-07T01:06:08;97863.05;;;16.27;74.38
65010;BME280;51556;50.002;22.014;2023-08-07T01:08:33;97865.66;;;16.30;74.12
65010;BME280;51556;50.002;22.014;2023-08-07T01:14:17;97878.86;;;16.25;74.39
65010;BME280;51556;50.002;22.014;2023-08-07T01:16:58;97888.34;;;16.26;74.31
65010;BME280;51556;50.002;22.014;2023-08-07T01:19:28;97897.55;;;16.27;74.31
65010;BME280;51556;50.002;22.014;2023-08-07T01:22:11;97907.42;;;16.30;74.18
65010;BME280;51556;50.002;22.014;2023-08-07T01:24:38;97911.77;;;16.31;73.90
65010;BME280;51556;50.002;22.014;2023-08-07T01:27:25;97918.80;;;16.25;74.09
65010;BME280;51556;50.002;22.014;2023-08-07T01:35:11;97912.73;;;16.33;73.85
65010;BME280;51556;50.002;22.014;2023-08-07T01:37:40;97908.48;;;16.35;74.00
65010;BME280;51556;50.002;22.014;2023-08-07T01:40:07;97906.83;;;16.38;73.91
65010;BME280;51556;50.002;22.014;2023-08-07T01:42:35;97909.46;;;16.41;74.01
65010;BME280;51556;50.002;22.014;2023-08-07T01:45:00;97908.26;;;16.40;74.00
65010;BME280;51556;50.002;22.014;2023-08-07T01:47:26;97907.89;;;16.38;73.84
65010;BME280;51556;50.002;22.014;2023-08-07T01:49:51;97901.36;;;16.37;74.14
65010;BME280;51556;50.002;22.014;2023-08-07T01:52:17;97903.35;;;16.39;74.20
65010;BME280;51556;50.002;22.014;2023-08-07T01:54:42;97903.13;;;16.42;73.96
65010;BME280;51556;50.002;22.014;2023-08-07T01:57:07;97899.58;;;16.50;73.88
65010;BME280;51556;50.002;22.014;2023-08-07T01:59:33;97901.81;;;16.53;73.57
65010;BME280;51556;50.002;22.014;2023-08-07T02:01:58;97905.04;;;16.51;73.46
65010;BME280;51556;50.002;22.014;2023-08-07T02:04:24;97906.08;;;16.53;73.26
65010;BME280;51556;50.002;22.014;2023-08-07T02:06:49;97907.67;;;16.51;73.27
65010;BME280;51556;50.002;22.014;2023-08-07T02:09:15;97910.80;;;16.49;73.23
65010;BME280;51556;50.002;22.014;2023-08-07T02:11:40;97910.36;;;16.38;73.70
65010;BME280;51556;50.002;22.014;2023-08-07T02:14:05;97908.77;;;16.41;73.76
65010;BME280;51556;50.002;22.014;2023-08-07T02:16:31;97904.17;;;16.43;73.51
65010;BME280;51556;50.002;22.014;2023-08-07T02:18:56;97905.21;;;16.38;73.45
65010;BME280;51556;50.002;22.014;2023-08-07T02:21:22;97911.34;;;16.35;73.58
65010;BME280;51556;50.002;22.014;2023-08-07T02:23:47;97908.23;;;16.36;73.66
65010;BME280;51556;50.002;22.014;2023-08-07T02:26:13;97902.63;;;16.37;73.54
65010;BME280;51556;50.002;22.014;2023-08-07T02:28:38;97903.80;;;16.35;73.72
65010;BME280;51556;50.002;22.014;2023-08-07T02:31:03;97899.87;;;16.36;73.64
65010;BME280;51556;50.002;22.014;2023-08-07T02:33:29;97903.44;;;16.38;73.61
65010;BME280;51556;50.002;22.014;2023-08-07T02:35:56;97901.41;;;16.37;73.63
65010;BME280;51556;50.002;22.014;2023-08-07T02:38:21;97907.02;;;16.33;73.68
65010;BME280;51556;50.002;22.014;2023-08-07T02:40:47;97913.02;;;16.26;73.86
65010;BME280;51556;50.002;22.014;2023-08-07T02:43:12;97912.93;;;16.25;73.83
65010;BME280;51556;50.002;22.014;2023-08-07T02:45:38;97906.92;;;16.27;73.97
65010;BME280;51556;50.002;22.014;2023-08-07T02:48:03;97904.19;;;16.31;73.73
65010;BME280;51556;50.002;22.014;2023-08-07T02:50:30;97905.52;;;16.34;73.91
65010;BME280;51556;50.002;22.014;2023-08-07T02:52:58;97909.86;;;16.35;73.72
65010;BME280;51556;50.002;22.014;2023-08-07T02:55:23;97912.89;;;16.26;73.92
65010;BME280;51556;50.002;22.014;2023-08-07T02:57:49;97915.17;;;16.16;74.33
65010;BME280;51556;50.002;22.014;2023-08-07T03:00:14;97915.86;;;16.11;74.48
65010;BME280;51556;50.002;22.014;2023-08-07T03:02:40;97913.42;;;16.08;74.78
65010;BME280;51556;50.002;22.014;2023-08-07T03:05:05;97909.63;;;16.09;74.50
65010;BME280;51556;50.002;22.014;2023-08-07T03:07:31;97909.33;;;16.11;74.58
65010;BME280;51556;50.002;22.014;2023-08-07T03:09:56;97917.16;;;16.13;74.41
65010;BME280;51556;50.002;22.014;2023-08-07T03:12:22;97929.40;;;16.13;74.64
65010;BME280;51556;50.002;22.014;2023-08-07T03:14:47;97933.44;;;16.14;74.47
65010;BME280;51556;50.002;22.014;2023-08-07T03:17:13;97935.29;;;16.10;74.58
65010;BME280;51556;50.002;22.014;2023-08-07T03:19:41;97934.77;;;16.08;74.81
65010;BME280;51556;50.002;22.014;2023-08-07T03:22:07;97934.38;;;16.05;74.93
65010;BME280;51556;50.002;22.014;2023-08-07T03:24:33;97938.08;;;16.09;74.93
65010;BME280;51556;50.002;22.014;2023-08-07T03:26:58;97938.55;;;16.04;75.12
65010;BME280;51556;50.002;22.014;2023-08-07T03:29:23;97940.46;;;16.04;75.00
65010;BME280;51556;50.002;22.014;2023-08-07T03:31:49;97942.63;;;16.09;75.08
65010;BME280;51556;50.002;22.014;2023-08-07T03:34:14;97946.30;;;16.18;74.90
65010;BME280;51556;50.002;22.014;2023-08-07T03:36:40;97950.23;;;16.25;74.85
65010;BME280;51556;50.002;22.014;2023-08-07T03:39:05;97946.08;;;16.31;74.72
65010;BME280;51556;50.002;22.014;2023-08-07T03:41:31;97955.92;;;16.36;74.41
65010;BME280;51556;50.002;22.014;2023-08-07T03:43:56;97961.73;;;16.40;74.16
65010;BME280;51556;50.002;22.014;2023-08-07T03:46:22;97966.88;;;16.40;74.22
65010;BME280;51556;50.002;22.014;2023-08-07T03:48:47;97969.38;;;16.40;74.01
65010;BME280;51556;50.002;22.014;2023-08-07T03:51:12;97975.52;;;16.44;74.12
65010;BME280;51556;50.002;22.014;2023-08-07T03:53:40;97980.88;;;16.46;74.05
65010;BME280;51556;50.002;22.014;2023-08-07T03:56:05;97986.31;;;16.44;74.15
65010;BME280;51556;50.002;22.014;2023-08-07T03:58:31;97982.41;;;16.44;74.21
65010;BME280;51556;50.002;22.014;2023-08-07T04:00:56;97989.70;;;16.44;74.21
65010;BME280;51556;50.002;22.014;2023-08-07T04:03:21;97992.17;;;16.44;74.10
65010;BME280;51556;50.002;22.014;2023-08-07T04:05:47;97995.48;;;16.43;74.20
65010;BME280;51556;50.002;22.014;2023-08-07T04:08:16;98002.17;;;16.46;74.37
65010;BME280;51556;50.002;22.014;2023-08-07T04:10:42;97997.73;;;16.48;74.35
65010;BME280;51556;50.002;22.014;2023-08-07T04:13:07;97996.33;;;16.48;74.33
65010;BME280;51556;50.002;22.014;2023-08-07T04:15:32;97993.58;;;16.47;74.49
65010;BME280;51556;50.002;22.014;2023-08-07T04:17:58;97990.59;;;16.46;74.53
65010;BME280;51556;50.002;22.014;2023-08-07T04:20:24;97992.64;;;16.48;74.62
65010;BME280;51556;50.002;22.014;2023-08-07T04:22:49;97994.97;;;16.45;74.75
65010;BME280;51556;50.002;22.014;2023-08-07T04:25:15;97993.20;;;16.45;74.82
65010;BME280;51556;50.002;22.014;2023-08-07T04:27:40;97988.92;;;16.47;74.96
65010;BME280;51556;50.002;22.014;2023-08-07T04:30:06;97987.51;;;16.45;75.05
65010;BME280;51556;50.002;22.014;2023-08-07T04:32:32;97985.44;;;16.41;75.09
65010;BME280;51556;50.002;22.014;2023-08-07T04:34:58;97991.39;;;16.40;75.25
65010;BME280;51556;50.002;22.014;2023-08-07T04:37:24;97992.45;;;16.38;75.25
65010;BME280;51556;50.002;22.014;2023-08-07T04:39:49;97994.73;;;16.35;75.33
65010;BME280;51556;50.002;22.014;2023-08-07T04:42:15;97999.20;;;16.33;75.43
65010;BME280;51556;50.002;22.014;2023-08-07T04:44:40;97989.22;;;16.33;75.35
65010;BME280;51556;50.002;22.014;2023-08-07T04:47:06;97986.20;;;16.35;75.49
65010;BME280;51556;50.002;22.014;2023-08-07T04:49:31;97987.61;;;16.38;75.48
65010;BME280;51556;50.002;22.014;2023-08-07T04:51:56;97990.50;;;16.40;75.39
65010;BME280;51556;50.002;22.014;2023-08-07T04:54:22;97989.36;;;16.41;75.47
65010;BME280;51556;50.002;22.014;2023-08-07T04:56:47;97993.01;;;16.42;75.68
65010;BME280;51556;50.002;22.014;2023-08-07T04:59:13;97989.34;;;16.47;75.55
65010;BME280;51556;50.002;22.014;2023-08-07T05:01:39;97988.70;;;16.53;75.44
65010;BME280;51556;50.002;22.014;2023-08-07T05:04:04;97988.17;;;16.58;75.36
65010;BME280;51556;50.002;22.014;2023-08-07T05:06:30;97992.73;;;16.58;75.29
65010;BME280;51556;50.002;22.014;2023-08-07T05:08:56;97992.02;;;16.61;75.36
65010;BME280;51556;50.002;22.014;2023-08-07T05:11:22;97990.09;;;16.63;75.20
65010;BME280;51556;50.002;22.014;2023-08-07T05:13:47;97991.86;;;16.68;75.24
65010;BME280;51556;50.002;22.014;2023-08-07T05:16:12;97991.61;;;16.75;75.08
65010;BME280;51556;50.002;22.014;2023-08-07T05:18:38;97991.52;;;16.81;74.91
65010;BME280;51556;50.002;22.014;2023-08-07T05:21:04;97989.36;;;16.86;74.88
65010;BME280;51556;50.002;22.014;2023-08-07T05:23:29;97995.40;;;16.96;74.90
65010;BME280;51556;50.002;22.014;2023-08-07T05:25:55;97995.16;;;16.99;74.35
65010;BME280;51556;50.002;22.014;2023-08-07T05:28:20;97994.06;;;17.02;74.48
65010;BME280;51556;50.002;22.014;2023-08-07T05:30:46;97995.27;;;17.09;74.36
65010;BME280;51556;50.002;22.014;2023-08-07T05:33:11;97995.66;;;17.11;73.92
65010;BME280;51556;50.002;22.014;2023-08-07T05:35:39;97997.58;;;17.10;74.03
65010;BME280;51556;50.002;22.014;2023-08-07T05:38:05;98000.76;;;17.12;73.96
65010;BME280;51556;50.002;22.014;2023-08-07T05:40:30;98000.98;;;17.05;73.83
65010;BME280;51556;50.002;22.014;2023-08-07T05:42:56;97998.66;;;17.05;74.08
65010;BME280;51556;50.002;22.014;2023-08-07T05:45:21;97999.06;;;17.13;74.36
65010;BME280;51556;50.002;22.014;2023-08-07T05:47:47;98006.27;;;17.22;73.87
65010;BME280;51556;50.002;22.014;2023-08-07T05:50:12;98005.94;;;17.19;73.42
65010;BME280;51556;50.002;22.014;2023-08-07T05:52:37;98006.48;;;17.21;73.57
65010;BME280;51556;50.002;22.014;2023-08-07T05:55:04;98004.91;;;17.25;73.32
65010;BME280;51556;50.002;22.014;2023-08-07T05:57:29;98006.79;;;17.26;72.73
65010;BME280;51556;50.002;22.014;2023-08-07T05:59:55;98013.38;;;17.22;72.77
65010;BME280;51556;50.002;22.014;2023-08-07T06:02:20;98010.13;;;17.18;73.02
65010;BME280;51556;50.002;22.014;2023-08-07T06:04:46;98013.02;;;17.22;73.13
65010;BME280;51556;50.002;22.014;2023-08-07T06:07:11;98014.59;;;17.25;73.45
65010;BME280;51556;50.002;22.014;2023-08-07T06:09:37;98013.77;;;17.26;73.52
65010;BME280;51556;50.002;22.014;2023-08-07T06:12:03;98010.04;;;17.33;73.65
65010;BME280;51556;50.002;22.014;2023-08-07T06:14:28;98016.11;;;17.37;73.36
65010;BME280;51556;50.002;22.014;2023-08-07T06:16:54;98011.38;;;17.44;73.49
65010;BME280;51556;50.002;22.014;2023-08-07T06:19:20;98012.61;;;17.49;73.26
65010;BME280;51556;50.002;22.014;2023-08-07T06:21:47;98012.71;;;17.50;73.02
65010;BME280;51556;50.002;22.014;2023-08-07T06:24:13;98012.82;;;17.48;73.13
65010;BME280;51556;50.002;22.014;2023-08-07T06:26:38;98015.35;;;17.50;73.04
65010;BME280;51556;50.002;22.014;2023-08-07T06:29:04;98018.47;;;17.54;73.23
65010;BME280;51556;50.002;22.014;2023-08-07T06:31:29;98019.61;;;17.57;72.95
65010;BME280;51556;50.002;22.014;2023-08-07T06:33:55;98019.32;;;17.56;73.04
65010;BME280;51556;50.002;22.014;2023-08-07T06:36:20;98018.84;;;17.63;72.97
65010;BME280;51556;50.002;22.014;2023-08-07T06:38:46;98021.64;;;17.69;72.61
65010;BME280;51556;50.002;22.014;2023-08-07T06:41:12;98015.64;;;17.75;72.58
65010;BME280;51556;50.002;22.014;2023-08-07T06:43:38;98021.16;;;17.80;72.61
65010;BME280;51556;50.002;22.014;2023-08-07T06:46:03;98025.85;;;17.85;72.44
65010;BME280;51556;50.002;22.014;2023-08-07T06:48:28;98024.47;;;17.92;72.35
65010;BME280;51556;50.002;22.014;2023-08-07T06:50:54;98029.38;;;17.95;72.30
65010;BME280;51556;50.002;22.014;2023-08-07T06:53:20;98029.52;;;18.00;72.16
65010;BME280;51556;50.002;22.014;2023-08-07T06:55:45;98031.27;;;18.06;71.79
65010;BME280;51556;50.002;22.014;2023-08-07T06:58:11;98034.14;;;18.08;71.74
65010;BME280;51556;50.002;22.014;2023-08-07T07:00:37;98033.70;;;18.11;71.20
65010;BME280;51556;50.002;22.014;2023-08-07T07:03:03;98026.06;;;18.15;70.74
65010;BME280;51556;50.002;22.014;2023-08-07T07:05:29;98031.88;;;18.20;70.85
65010;BME280;51556;50.002;22.014;2023-08-07T07:07:55;98034.47;;;18.22;70.04
65010;BME280;51556;50.002;22.014;2023-08-07T07:10:21;98038.22;;;18.21;69.48
65010;BME280;51556;50.002;22.014;2023-08-07T07:12:46;98039.64;;;18.26;69.09
65010;BME280;51556;50.002;22.014;2023-08-07T07:15:12;98037.41;;;18.31;69.12
65010;BME280;51556;50.002;22.014;2023-08-07T07:17:38;98039.98;;;18.35;68.26
65010;BME280;51556;50.002;22.014;2023-08-07T07:20:04;98036.90;;;18.43;68.35
65010;BME280;51556;50.002;22.014;2023-08-07T07:22:30;98038.23;;;18.51;67.85
65010;BME280;51556;50.002;22.014;2023-08-07T07:24:55;98036.99;;;18.53;67.49
65010;BME280;51556;50.002;22.014;2023-08-07T07:27:21;98037.17;;;18.62;68.24
65010;BME280;51556;50.002;22.014;2023-08-07T07:29:48;98045.79;;;18.75;67.18
65010;BME280;51556;50.002;22.014;2023-08-07T07:32:13;98048.34;;;18.74;65.48
65010;BME280;51556;50.002;22.014;2023-08-07T07:34:39;98051.02;;;18.67;64.39
65010;BME280;51556;50.002;22.014;2023-08-07T07:37:04;98049.06;;;18.65;63.95
65010;BME280;51556;50.002;22.014;2023-08-07T07:39:30;98048.27;;;18.73;64.30
65010;BME280;51556;50.002;22.014;2023-08-07T07:41:55;98051.59;;;18.71;63.47
65010;BME280;51556;50.002;22.014;2023-08-07T07:44:21;98050.36;;;18.62;63.00
65010;BME280;51556;50.002;22.014;2023-08-07T07:46:46;98051.16;;;18.61;62.40
65010;BME280;51556;50.002;22.014;2023-08-07T07:49:12;98053.32;;;18.67;63.04
65010;BME280;51556;50.002;22.014;2023-08-07T07:51:37;98056.99;;;18.73;62.56
65010;BME280;51556;50.002;22.014;2023-08-07T07:54:03;98057.97;;;18.72;61.18
65010;BME280;51556;50.002;22.014;2023-08-07T07:56:28;98057.30;;;18.66;60.59
65010;BME280;51556;50.002;22.014;2023-08-07T07:58:55;98054.70;;;18.68;60.73
65010;BME280;51556;50.002;22.014;2023-08-07T08:01:20;98056.30;;;18.73;60.77
65010;BME280;51556;50.002;22.014;2023-08-07T08:03:45;98061.55;;;18.77;60.69
65010;BME280;51556;50.002;22.014;2023-08-07T08:06:11;98065.34;;;18.78;60.98
65010;BME280;51556;50.002;22.014;2023-08-07T08:08:37;98071.67;;;18.79;60.53
65010;BME280;51556;50.002;22.014;2023-08-07T08:11:03;98074.63;;;18.76;61.13
65010;BME280;51556;50.002;22.014;2023-08-07T08:13:28;98078.20;;;18.80;61.57
65010;BME280;51556;50.002;22.014;2023-08-07T08:15:54;98083.04;;;18.88;62.14
65010;BME280;51556;50.002;22.014;2023-08-07T08:18:19;98088.95;;;19.01;60.95
65010;BME280;51556;50.002;22.014;2023-08-07T08:20:44;98089.65;;;19.13;60.27
65010;BME280;51556;50.002;22.014;2023-08-07T08:23:10;98091.30;;;19.23;60.11
65010;BME280;51556;50.002;22.014;2023-08-07T08:25:35;98096.23;;;19.37;60.25
65010;BME280;51556;50.002;22.014;2023-08-07T08:28:01;98100.79;;;19.47;59.21
65010;BME280;51556;50.002;22.014;2023-08-07T08:30:28;98102.95;;;19.49;58.61
65010;BME280;51556;50.002;22.014;2023-08-07T08:32:54;98093.64;;;19.49;58.65
65010;BME280;51556;50.002;22.014;2023-08-07T08:35:20;98096.59;;;19.52;57.67
65010;BME280;51556;50.002;22.014;2023-08-07T08:37:45;98099.98;;;19.59;57.62
65010;BME280;51556;50.002;22.014;2023-08-07T08:40:11;98097.33;;;19.61;57.57
65010;BME280;51556;50.002;22.014;2023-08-07T08:42:44;98096.25;;;19.63;57.07
65010;BME280;51556;50.002;22.014;2023-08-07T08:45:12;98098.65;;;19.66;57.73
65010;BME280;51556;50.002;22.014;2023-08-07T08:47:39;98103.73;;;19.78;57.26
65010;BME280;51556;50.002;22.014;2023-08-07T08:50:07;98112.01;;;19.84;57.32
65010;BME280;51556;50.002;22.014;2023-08-07T08:52:33;98108.40;;;19.93;57.95
65010;BME280;51556;50.002;22.014;2023-08-07T08:54:59;98113.79;;;20.05;57.72
65010;BME280;51556;50.002;22.014;2023-08-07T08:57:25;98112.76;;;20.07;56.35
65010;BME280;51556;50.002;22.014;2023-08-07T08:59:55;98110.66;;;20.09;56.87
65010;BME280;51556;50.002;22.014;2023-08-07T09:02:21;98115.27;;;20.13;56.57
65010;BME280;51556;50.002;22.014;2023-08-07T09:04:47;98117.54;;;20.10;55.88
65010;BME280;51556;50.002;22.014;2023-08-07T09:07:15;98116.77;;;20.10;55.39
65010;BME280;51556;50.002;22.014;2023-08-07T09:09:41;98117.33;;;20.08;55.64
65010;BME280;51556;50.002;22.014;2023-08-07T09:12:19;98120.88;;;20.08;55.87
65010;BME280;51556;50.002;22.014;2023-08-07T09:14:49;98119.73;;;20.09;57.04
65010;BME280;51556;50.002;22.014;2023-08-07T09:17:16;98118.69;;;20.07;57.60
65010;BME280;51556;50.002;22.014;2023-08-07T09:19:42;98121.17;;;20.02;58.09
65010;BME280;51556;50.002;22.014;2023-08-07T09:22:08;98118.10;;;19.98;57.97
65010;BME280;51556;50.002;22.014;2023-08-07T09:24:34;98126.48;;;19.96;58.89
65010;BME280;51556;50.002;22.014;2023-08-07T09:26:59;98123.68;;;19.87;59.99
65010;BME280;51556;50.002;22.014;2023-08-07T09:29:26;98126.16;;;19.73;60.74
65010;BME280;51556;50.002;22.014;2023-08-07T09:31:54;98129.75;;;19.68;61.01
65010;BME280;51556;50.002;22.014;2023-08-07T09:34:20;98127.80;;;19.66;61.28
65010;BME280;51556;50.002;22.014;2023-08-07T09:36:45;98130.84;;;19.66;61.79
65010;BME280;51556;50.002;22.014;2023-08-07T09:39:11;98131.68;;;19.71;62.27
65010;BME280;51556;50.002;22.014;2023-08-07T09:41:36;98131.99;;;19.76;61.42
65010;BME280;51556;50.002;22.014;2023-08-07T09:44:10;98131.29;;;19.75;60.99
65010;BME280;51556;50.002;22.014;2023-08-07T09:46:43;98134.27;;;19.78;60.88
65010;BME280;51556;50.002;22.014;2023-08-07T09:49:09;98132.28;;;19.76;60.34
65010;BME280;51556;50.002;22.014;2023-08-07T09:51:44;98130.86;;;19.81;60.11
65010;BME280;51556;50.002;22.014;2023-08-07T09:54:10;98136.62;;;19.95;60.38
65010;BME280;51556;50.002;22.014;2023-08-07T09:56:37;98127.90;;;20.14;60.28
65010;BME280;51556;50.002;22.014;2023-08-07T09:59:03;98127.17;;;20.14;58.54
65010;BME280;51556;50.002;22.014;2023-08-07T10:01:29;98131.02;;;20.28;59.32
65010;BME280;51556;50.002;22.014;2023-08-07T10:03:54;98128.27;;;20.43;58.82
65010;BME280;51556;50.002;22.014;2023-08-07T10:06:20;98124.39;;;20.55;58.41
65010;BME280;51556;50.002;22.014;2023-08-07T10:08:46;98125.40;;;20.64;57.82
65010;BME280;51556;50.002;22.014;2023-08-07T10:11:12;98123.25;;;20.73;57.89
65010;BME280;51556;50.002;22.014;2023-08-07T10:13:40;98120.90;;;20.79;57.93
65010;BME280;51556;50.002;22.014;2023-08-07T10:16:06;98124.17;;;20.85;57.45
65010;BME280;51556;50.002;22.014;2023-08-07T10:18:32;98122.76;;;20.84;55.93
65010;BME280;51556;50.002;22.014;2023-08-07T10:21:00;98119.35;;;20.82;56.68
65010;BME280;51556;50.002;22.014;2023-08-07T10:23:26;98119.41;;;20.98;57.04
65010;BME280;51556;50.002;22.014;2023-08-07T10:25:53;98120.42;;;21.17;55.39
65010;BME280;51556;50.002;22.014;2023-08-07T10:28:19;98121.36;;;21.27;52.26
65010;BME280;51556;50.002;22.014;2023-08-07T10:30:46;98122.85;;;21.38;53.18
65010;BME280;51556;50.002;22.014;2023-08-07T10:33:14;98121.62;;;21.50;53.43
65010;BME280;51556;50.002;22.014;2023-08-07T10:35:47;98118.84;;;21.55;53.59
65010;BME280;51556;50.002;22.014;2023-08-07T10:38:14;98116.64;;;21.65;53.60
65010;BME280;51556;50.002;22.014;2023-08-07T10:40:59;98119.58;;;21.66;52.54
65010;BME280;51556;50.002;22.014;2023-08-07T10:43:26;98121.14;;;21.59;52.18
65010;BME280;51556;50.002;22.014;2023-08-07T10:45:53;98120.27;;;21.53;53.13
65010;BME280;51556;50.002;22.014;2023-08-07T10:48:20;98124.08;;;21.58;53.68
65010;BME280;51556;50.002;22.014;2023-08-07T10:53:42;98133.73;;;21.47;54.08
65010;BME280;51556;50.002;22.014;2023-08-07T10:58:41;98140.17;;;21.08;58.25
65010;BME280;51556;50.002;22.014;2023-08-07T11:04:10;98139.03;;;20.95;60.19
65010;BME280;51556;50.002;22.014;2023-08-07T11:06:37;98145.38;;;20.98;60.04
65010;BME280;51556;50.002;22.014;2023-08-07T11:09:07;98149.76;;;20.99;60.48
65010;BME280;51556;50.002;22.014;2023-08-07T11:11:38;98154.57;;;21.01;60.79
65010;BME280;51556;50.002;22.014;2023-08-07T11:14:09;98157.45;;;21.01;60.62
65010;BME280;51556;50.002;22.014;2023-08-07T11:16:35;98158.61;;;21.06;60.74
65010;BME280;51556;50.002;22.014;2023-08-07T11:19:01;98163.02;;;21.09;60.23
65010;BME280;51556;50.002;22.014;2023-08-07T11:21:27;98168.21;;;21.05;59.84
65010;BME280;51556;50.002;22.014;2023-08-07T11:23:53;98166.04;;;21.01;59.86
65010;BME280;51556;50.002;22.014;2023-08-07T11:26:18;98166.97;;;21.00;59.96
65010;BME280;51556;50.002;22.014;2023-08-07T11:28:47;98163.33;;;20.93;59.18
65010;BME280;51556;50.002;22.014;2023-08-07T11:31:13;98166.46;;;20.92;59.27
65010;BME280;51556;50.002;22.014;2023-08-07T11:33:40;98168.46;;;20.85;59.32
65010;BME280;51556;50.002;22.014;2023-08-07T11:36:13;98167.30;;;20.82;59.42
65010;BME280;51556;50.002;22.014;2023-08-07T11:38:41;98165.14;;;20.84;59.27
65010;BME280;51556;50.002;22.014;2023-08-07T11:41:10;98170.80;;;20.81;58.71
65010;BME280;51556;50.002;22.014;2023-08-07T11:43:37;98165.52;;;20.78;58.52
65010;BME280;51556;50.002;22.014;2023-08-07T11:46:05;98167.20;;;20.83;58.26
65010;BME280;51556;50.002;22.014;2023-08-07T11:48:33;98166.52;;;20.87;57.89
65010;BME280;51556;50.002;22.014;2023-08-07T11:51:01;98165.42;;;20.91;58.51
65010;BME280;51556;50.002;22.014;2023-08-07T11:53:28;98166.64;;;21.02;59.09
65010;BME280;51556;50.002;22.014;2023-08-07T11:55:58;98167.44;;;21.03;58.70
65010;BME280;51556;50.002;22.014;2023-08-07T11:58:25;98170.75;;;20.96;58.67
65010;BME280;51556;50.002;22.014;2023-08-07T12:00:52;98171.45;;;20.96;59.05
65010;BME280;51556;50.002;22.014;2023-08-07T12:03:31;98174.42;;;20.85;59.33
65010;BME280;51556;50.002;22.014;2023-08-07T12:05:58;98179.14;;;20.74;59.23
65010;BME280;51556;50.002;22.014;2023-08-07T12:08:25;98186.18;;;20.68;59.41
65010;BME280;51556;50.002;22.014;2023-08-07T12:10:53;98185.08;;;20.64;59.16
65010;BME280;51556;50.002;22.014;2023-08-07T12:13:25;98188.75;;;20.61;59.27
65010;BME280;51556;50.002;22.014;2023-08-07T12:15:55;98192.17;;;20.61;59.62
65010;BME280;51556;50.002;22.014;2023-08-07T12:18:21;98194.51;;;20.57;59.79
65010;BME280;51556;50.002;22.014;2023-08-07T12:20:51;98197.45;;;20.58;59.37
65010;BME280;51556;50.002;22.014;2023-08-07T12:23:18;98199.48;;;20.51;59.41
65010;BME280;51556;50.002;22.014;2023-08-07T12:25:44;98196.52;;;20.48;59.86
65010;BME280;51556;50.002;22.014;2023-08-07T12:28:10;98200.90;;;20.55;60.19
65010;BME280;51556;50.002;22.014;2023-08-07T12:30:40;98202.67;;;20.61;60.08
65010;BME280;51556;50.002;22.014;2023-08-07T12:33:05;98202.17;;;20.61;59.69
65010;BME280;51556;50.002;22.014;2023-08-07T12:35:34;98205.29;;;20.48;59.95
65010;BME280;51556;50.002;22.014;2023-08-07T12:38:00;98212.49;;;20.34;61.51
65010;BME280;51556;50.002;22.014;2023-08-07T12:40:27;98217.71;;;20.12;63.19
65010;BME280;51556;50.002;22.014;2023-08-07T12:42:53;98217.02;;;19.92;64.49
65010;BME280;51556;50.002;22.014;2023-08-07T12:45:18;98218.57;;;19.76;65.72
65010;BME280;51556;50.002;22.014;2023-08-07T12:47:47;98215.17;;;19.58;66.83
65010;BME280;51556;50.002;22.014;2023-08-07T12:50:13;98221.60;;;19.56;67.63
65010;BME280;51556;50.002;22.014;2023-08-07T12:52:38;98218.75;;;19.60;68.31
65010;BME280;51556;50.002;22.014;2023-08-07T12:55:04;98223.77;;;19.62;68.64
65010;BME280;51556;50.002;22.014;2023-08-07T12:57:31;98223.89;;;19.57;68.38
65010;BME280;51556;50.002;22.014;2023-08-07T12:59:57;98222.35;;;19.56;69.08
65010;BME280;51556;50.002;22.014;2023-08-07T13:02:22;98216.42;;;19.59;69.42